createdAt,value
2016-11-07T00:03:21.122Z,45.3
2016-11-07T00:08:25.544Z,45.4
2016-11-07T00:13:29.628Z,45.3
2016-11-07T00:18:34.386Z,45.3
2016-11-07T00:23:38.805Z,45.2
2016-11-07T00:28:42.894Z,45.3
2016-11-07T00:33:46.980Z,45.3
2016-11-07T00:38:51.066Z,45.2
2016-11-07T00:43:55.155Z,45.2
2016-11-07T00:48:59.240Z,45.1
2016-11-07T00:54:03.664Z,45.2
2016-11-07T00:59:08.084Z,45.2
2016-11-07T01:04:12.505Z,45.2
2016-11-07T01:09:16.593Z,45.2
2016-11-07T01:14:20.677Z,45.2
2016-11-07T01:19:24.771Z,45.2
2016-11-07T01:24:28.859Z,45.1
2016-11-07T01:29:32.949Z,45.2
2016-11-07T01:34:37.037Z,45.2
2016-11-07T01:39:41.122Z,45.2
2016-11-07T01:44:45.546Z,45.1
2016-11-07T01:49:49.972Z,45.1
2016-11-07T01:54:54.064Z,45.1
2016-11-07T01:59:58.480Z,45.1
2016-11-07T02:05:02.905Z,45.1
2016-11-07T02:10:06.985Z,45.9
2016-11-07T02:15:11.067Z,47
2016-11-07T02:20:15.482Z,47.4
2016-11-07T02:25:19.567Z,47.4
2016-11-07T02:30:24.658Z,47.3
2016-11-07T02:35:28.750Z,47.1
2016-11-07T02:40:32.834Z,46.8
2016-11-07T02:45:36.918Z,46.4
2016-11-07T02:50:41.006Z,46
2016-11-07T02:55:45.095Z,45.5
2016-11-07T03:00:49.173Z,45.1
2016-11-07T03:05:53.606Z,44.7
2016-11-07T03:10:57.694Z,44.3
2016-11-07T03:16:02.452Z,43.9
2016-11-07T03:21:06.545Z,43.4
2016-11-07T03:26:10.650Z,42.9
2016-11-07T03:31:14.751Z,42.7
2016-11-07T03:36:19.177Z,42.6
2016-11-07T03:41:23.268Z,42.6
2016-11-07T03:46:27.367Z,42.6
2016-11-07T03:51:31.787Z,42.7
2016-11-07T03:56:35.871Z,42.7
2016-11-07T04:01:40.294Z,42.7
2016-11-07T04:06:44.379Z,42.8
2016-11-07T04:11:48.472Z,42.8
2016-11-07T04:16:52.896Z,42.9
2016-11-07T04:21:57.333Z,42.9
2016-11-07T04:27:01.433Z,42.9
2016-11-07T04:32:05.841Z,42.9
2016-11-07T04:37:10.260Z,42.9
2016-11-07T04:42:14.676Z,42.9
2016-11-07T04:47:18.777Z,42.9
2016-11-07T04:52:23.202Z,42.9
2016-11-07T04:57:27.304Z,42.9
2016-11-07T05:02:31.733Z,42.9
2016-11-07T05:07:35.819Z,42.9
2016-11-07T05:12:39.917Z,42.9
2016-11-07T05:17:44.003Z,43
2016-11-07T05:22:48.767Z,43
2016-11-07T05:27:53.136Z,43
2016-11-07T05:32:57.897Z,43
2016-11-07T05:38:01.990Z,43.2
2016-11-07T05:43:06.084Z,43.2
2016-11-07T05:48:11.079Z,43.5
2016-11-07T05:53:15.162Z,44.3
2016-11-07T05:58:19.269Z,44.3
2016-11-07T06:03:23.763Z,44.5
2016-11-07T06:08:27.874Z,44.5
2016-11-07T06:13:31.959Z,44.9
2016-11-07T06:18:36.059Z,45.8
2016-11-07T06:23:40.820Z,46.2
2016-11-07T06:28:44.906Z,46.6
2016-11-07T06:33:49.674Z,46.6
2016-11-07T06:38:53.770Z,45.6
2016-11-07T06:43:57.868Z,45.1
2016-11-07T06:49:02.291Z,45.4
2016-11-07T06:54:07.050Z,45.3
2016-11-07T06:59:11.474Z,45
2016-11-07T07:04:15.565Z,44.7
2016-11-07T07:09:20.009Z,44.2
2016-11-07T07:14:24.102Z,43.7
2016-11-07T07:19:28.529Z,43.1
2016-11-07T07:24:32.616Z,42.7
2016-11-07T07:29:36.701Z,42.4
2016-11-07T07:34:40.791Z,42
2016-11-07T07:39:44.881Z,41.7
2016-11-07T07:44:48.971Z,41.2
2016-11-07T07:49:53.738Z,40.7
2016-11-07T07:54:58.165Z,40.6
2016-11-07T08:00:02.255Z,40.6
2016-11-07T08:05:06.687Z,40.7
2016-11-07T08:10:11.443Z,40.8
2016-11-07T08:15:15.539Z,40.9
2016-11-07T08:20:19.635Z,40.9
2016-11-07T08:25:23.727Z,40.9
2016-11-07T08:30:27.816Z,40.9
2016-11-07T08:35:31.957Z,40.8
2016-11-07T08:40:36.921Z,41.1
2016-11-07T08:45:41.366Z,41.1
2016-11-07T08:50:45.475Z,41.3
2016-11-07T08:55:49.557Z,41.4
2016-11-07T09:00:53.655Z,41.6
2016-11-07T09:05:58.421Z,40.9
2016-11-07T09:11:02.507Z,40.3
2016-11-07T09:16:06.932Z,40.2
2016-11-07T09:21:11.020Z,40.1
2016-11-07T09:26:15.445Z,40
2016-11-07T09:31:19.535Z,40.1
2016-11-07T09:36:23.969Z,40.2
2016-11-07T09:41:28.734Z,40.1
2016-11-07T09:46:32.836Z,40.1
2016-11-07T09:51:36.928Z,40.2
2016-11-07T09:56:41.360Z,40.1
2016-11-07T10:01:45.450Z,40.1
2016-11-07T10:06:49.542Z,40.1
2016-11-07T10:11:53.641Z,40.1
2016-11-07T10:16:57.733Z,40.1
2016-11-07T10:22:01.823Z,40.2
2016-11-07T10:27:05.912Z,40.1
2016-11-07T10:32:10.337Z,40.1
2016-11-07T10:37:14.423Z,40.1
2016-11-07T10:42:18.515Z,40.2
2016-11-07T10:47:23.282Z,40.1
2016-11-07T10:52:28.047Z,33.8
2016-11-07T10:57:32.816Z,29.4
2016-11-07T11:02:37.242Z,33.6
2016-11-07T11:07:41.330Z,36.4
2016-11-07T11:12:45.754Z,38.1
2016-11-07T11:17:50.179Z,39.1
2016-11-07T11:22:54.373Z,39.6
2016-11-07T11:27:58.799Z,39.4
2016-11-07T11:33:02.899Z,38.7
2016-11-07T11:38:07.321Z,38.1
2016-11-07T11:43:11.749Z,37.4
2016-11-07T11:48:15.841Z,36.9
2016-11-07T11:53:19.936Z,36.3
2016-11-07T11:58:24.031Z,36
2016-11-07T12:03:28.462Z,35.5
2016-11-07T12:08:32.897Z,34.9
2016-11-07T12:13:36.991Z,34.5
2016-11-07T12:18:41.418Z,34.1
2016-11-07T12:23:45.521Z,34.1
2016-11-07T12:28:49.616Z,34.3
2016-11-07T12:33:54.054Z,34.6
2016-11-07T12:38:58.150Z,35.2
2016-11-07T12:44:02.251Z,36.1
2016-11-07T12:49:06.342Z,37.1
2016-11-07T12:54:11.107Z,37.7
2016-11-07T12:59:15.208Z,37.8
2016-11-07T13:04:19.970Z,37.8
2016-11-07T13:09:24.534Z,37.8
2016-11-07T13:14:29.293Z,38
2016-11-07T13:19:33.622Z,38.2
2016-11-07T13:24:38.261Z,38.9
2016-11-07T13:29:43.431Z,38.1
2016-11-07T13:34:47.549Z,36.8
2016-11-07T13:39:51.644Z,36.1
2016-11-07T13:44:56.410Z,35.7
2016-11-07T13:50:00.843Z,35.7
2016-11-07T13:55:04.945Z,35.8
2016-11-07T14:00:09.368Z,35.9
2016-11-07T14:05:14.486Z,36.2
2016-11-07T14:10:18.574Z,36.2
2016-11-07T14:15:22.663Z,36.4
2016-11-07T14:20:27.082Z,36.6
2016-11-07T14:25:31.839Z,36.7
2016-11-07T14:30:35.929Z,36.8
2016-11-07T14:35:40.687Z,36.9
2016-11-07T14:40:44.772Z,37
2016-11-07T14:45:49.864Z,37.1
2016-11-07T14:50:53.955Z,37.2
2016-11-07T14:55:58.398Z,37.3
2016-11-07T15:01:02.836Z,37.5
2016-11-07T15:06:07.291Z,37.6
2016-11-07T15:11:11.418Z,38.1
2016-11-07T15:16:15.509Z,38.4
2016-11-07T15:21:19.943Z,38.3
2016-11-07T15:26:24.501Z,39.3
2016-11-07T15:31:28.592Z,39.7
2016-11-07T15:36:33.033Z,39.7
2016-11-07T15:41:37.121Z,40.1
2016-11-07T15:46:41.207Z,40.7
2016-11-07T15:51:45.469Z,40
2016-11-07T15:56:50.232Z,39.1
2016-11-07T16:01:54.324Z,38.7
2016-11-07T16:06:58.423Z,38.4
2016-11-07T16:12:02.524Z,37.9
2016-11-07T16:17:06.610Z,37.4
2016-11-07T16:22:11.043Z,37.1
2016-11-07T16:27:15.461Z,36.7
2016-11-07T16:32:19.889Z,36.4
2016-11-07T16:37:24.004Z,36.1
2016-11-07T16:42:28.116Z,35.8
2016-11-07T16:47:32.285Z,35.5
2016-11-07T16:52:36.390Z,35.3
2016-11-07T16:57:41.053Z,35.1
2016-11-07T17:02:45.468Z,35.1
2016-11-07T17:07:50.226Z,35
2016-11-07T17:12:54.318Z,34.9
2016-11-07T17:17:58.623Z,34.9
2016-11-07T17:23:03.055Z,34.9
2016-11-07T17:28:07.496Z,34.7
2016-11-07T17:33:12.284Z,34.6
2016-11-07T17:38:16.414Z,34.4
2016-11-07T17:43:20.540Z,34.3
2016-11-07T17:48:24.648Z,34.2
2016-11-07T17:53:28.750Z,34
2016-11-07T17:58:32.850Z,33.8
2016-11-07T18:03:36.976Z,33.9
2016-11-07T18:08:41.075Z,33.9
2016-11-07T18:13:45.195Z,33.6
2016-11-07T18:18:49.658Z,33.4
2016-11-07T18:23:53.746Z,33.1
2016-11-07T18:28:58.171Z,32.8
2016-11-07T18:34:02.616Z,32.7
2016-11-07T18:39:07.497Z,32.7
2016-11-07T18:44:11.606Z,32.6
2016-11-07T18:49:16.388Z,32.6
2016-11-07T18:54:20.822Z,32.7
2016-11-07T18:59:25.614Z,33.2
2016-11-07T19:04:30.034Z,33.7
2016-11-07T19:09:34.134Z,34
2016-11-07T19:14:38.911Z,34.1
2016-11-07T19:19:43.066Z,34.3
2016-11-07T19:24:47.156Z,34.5
2016-11-07T19:30:21.088Z,34.6
2016-11-07T19:35:25.558Z,34.4
2016-11-07T19:40:29.654Z,34.3
2016-11-07T19:45:33.751Z,35.1
2016-11-07T19:50:37.846Z,35.6
2016-11-07T19:55:42.626Z,35.8
2016-11-07T20:00:47.388Z,36
2016-11-07T20:05:52.153Z,36.1
2016-11-07T20:10:56.590Z,36.3
2016-11-07T20:16:01.358Z,36.6
2016-11-07T20:21:05.789Z,36.8
2016-11-07T20:26:09.877Z,36.9
2016-11-07T20:31:13.996Z,37
2016-11-07T20:36:18.428Z,37.1
2016-11-07T20:41:22.517Z,37.2
2016-11-07T20:46:26.955Z,37.2
2016-11-07T20:51:31.035Z,37.2
2016-11-07T20:56:35.672Z,37.3
2016-11-07T21:01:40.150Z,37.3
2016-11-07T21:06:44.261Z,37.4
2016-11-07T21:11:49.285Z,37.4
2016-11-07T21:16:53.778Z,37.4
2016-11-07T21:21:57.993Z,37.3
2016-11-07T21:27:02.415Z,37.4
2016-11-07T21:32:07.176Z,37.4
2016-11-07T21:37:11.270Z,37.5
2016-11-07T21:42:15.715Z,37.5
2016-11-07T21:47:20.132Z,37.5
2016-11-07T21:52:24.237Z,37.6
2016-11-07T21:57:28.309Z,37.6
2016-11-07T22:02:32.402Z,37.7
2016-11-07T22:07:36.829Z,37.6
2016-11-07T22:12:40.920Z,37.6
2016-11-07T22:17:45.005Z,37.7
2016-11-07T22:22:49.425Z,37.7
2016-11-07T22:27:54.191Z,37.6
2016-11-07T22:32:58.282Z,37.6
2016-11-07T22:38:03.050Z,37.7
2016-11-07T22:43:07.815Z,37.7
2016-11-07T22:48:12.245Z,37.7
2016-11-07T22:53:16.324Z,37.7
2016-11-07T22:58:20.416Z,37.7
2016-11-07T23:03:24.843Z,37.7
2016-11-07T23:08:28.943Z,37.7
2016-11-07T23:13:33.026Z,37.7
2016-11-07T23:18:37.120Z,37.7
2016-11-07T23:23:41.561Z,37.7
2016-11-07T23:28:45.974Z,37.6
2016-11-07T23:33:50.403Z,37.5
2016-11-07T23:38:54.829Z,37.5
2016-11-07T23:43:59.250Z,37.4
2016-11-07T23:49:03.338Z,37.4
2016-11-07T23:54:07.421Z,37.4
2016-11-07T23:59:11.849Z,37.4
